sensor_id;sensor_type;location;lat;lon;timestamp;P1;durP1;ratioP1;P2;durP2;ratioP2
4939;SDS011;2485;49.326;7.214;2023-01-29T00:01:01;6.10;;;3.53;;
4939;SDS011;2485;49.326;7.214;2023-01-29T00:03:27;4.30;;;3.00;;
4939;SDS011;2485;49.326;7.214;2023-01-29T00:05:53;4.30;;;3.33;;
4939;SDS011;2485;49.326;7.214;2023-01-29T00:08:20;4.10;;;3.30;;
4939;SDS011;2485;49.326;7.214;2023-01-29T00:10:47;6.70;;;2.90;;
4939;SDS011;2485;49.326;7.214;2023-01-29T00:13:14;5.40;;;3.00;;
4939;SDS011;2485;49.326;7.214;2023-01-29T00:15:40;6.10;;;3.17;;
4939;SDS011;2485;49.326;7.214;2023-01-29T00:18:07;3.57;;;2.40;;
4939;SDS011;2485;49.326;7.214;2023-01-29T00:20:33;3.33;;;2.87;;
4939;SDS011;2485;49.326;7.214;2023-01-29T00:22:59;3.83;;;3.00;;
4939;SDS011;2485;49.326;7.214;2023-01-29T00:25:26;3.37;;;2.90;;
4939;SDS011;2485;49.326;7.214;2023-01-29T00:27:53;6.20;;;2.83;;
4939;SDS011;2485;49.326;7.214;2023-01-29T00:30:20;3.60;;;3.10;;
4939;SDS011;2485;49.326;7.214;2023-01-29T00:32:46;5.03;;;3.57;;
4939;SDS011;2485;49.326;7.214;2023-01-29T00:35:13;4.37;;;3.00;;
4939;SDS011;2485;49.326;7.214;2023-01-29T00:37:39;5.70;;;3.70;;
4939;SDS011;2485;49.326;7.214;2023-01-29T00:40:06;5.03;;;3.33;;
4939;SDS011;2485;49.326;7.214;2023-01-29T00:42:33;5.27;;;3.30;;
4939;SDS011;2485;49.326;7.214;2023-01-29T00:45:18;3.73;;;3.00;;
4939;SDS011;2485;49.326;7.214;2023-01-29T00:47:44;3.73;;;3.07;;
4939;SDS011;2485;49.326;7.214;2023-01-29T00:50:11;4.03;;;3.07;;
4939;SDS011;2485;49.326;7.214;2023-01-29T00:52:37;4.07;;;3.60;;
4939;SDS011;2485;49.326;7.214;2023-01-29T00:55:05;3.83;;;3.10;;
4939;SDS011;2485;49.326;7.214;2023-01-29T00:57:32;6.40;;;2.93;;
4939;SDS011;2485;49.326;7.214;2023-01-29T00:59:59;3.60;;;2.80;;
4939;SDS011;2485;49.326;7.214;2023-01-29T01:02:27;3.53;;;2.83;;
4939;SDS011;2485;49.326;7.214;2023-01-29T01:05:16;2.60;;;2.40;;
4939;SDS011;2485;49.326;7.214;2023-01-29T01:07:43;3.70;;;3.10;;
4939;SDS011;2485;49.326;7.214;2023-01-29T01:10:11;4.10;;;2.97;;
4939;SDS011;2485;49.326;7.214;2023-01-29T01:12:46;4.00;;;2.73;;
4939;SDS011;2485;49.326;7.214;2023-01-29T01:15:13;3.87;;;2.77;;
4939;SDS011;2485;49.326;7.214;2023-01-29T01:17:40;7.10;;;3.20;;
4939;SDS011;2485;49.326;7.214;2023-01-29T01:20:07;4.87;;;2.90;;
4939;SDS011;2485;49.326;7.214;2023-01-29T01:22:34;4.67;;;2.50;;
4939;SDS011;2485;49.326;7.214;2023-01-29T01:25:00;4.23;;;2.97;;
4939;SDS011;2485;49.326;7.214;2023-01-29T01:27:27;3.60;;;3.10;;
4939;SDS011;2485;49.326;7.214;2023-01-29T01:29:53;4.43;;;2.90;;
4939;SDS011;2485;49.326;7.214;2023-01-29T01:32:19;2.83;;;2.30;;
4939;SDS011;2485;49.326;7.214;2023-01-29T01:34:47;3.73;;;2.33;;
4939;SDS011;2485;49.326;7.214;2023-01-29T01:37:13;3.23;;;2.77;;
4939;SDS011;2485;49.326;7.214;2023-01-29T01:39:40;3.60;;;2.93;;
4939;SDS011;2485;49.326;7.214;2023-01-29T01:42:09;6.30;;;2.67;;
4939;SDS011;2485;49.326;7.214;2023-01-29T01:44:56;4.80;;;2.37;;
4939;SDS011;2485;49.326;7.214;2023-01-29T01:47:25;3.20;;;2.70;;
4939;SDS011;2485;49.326;7.214;2023-01-29T01:49:54;7.33;;;2.60;;
4939;SDS011;2485;49.326;7.214;2023-01-29T01:52:21;5.40;;;3.03;;
4939;SDS011;2485;49.326;7.214;2023-01-29T01:54:48;4.10;;;3.37;;
4939;SDS011;2485;49.326;7.214;2023-01-29T01:57:16;4.73;;;3.00;;
4939;SDS011;2485;49.326;7.214;2023-01-29T01:59:49;10.93;;;3.70;;
4939;SDS011;2485;49.326;7.214;2023-01-29T02:02:18;3.40;;;2.90;;
4939;SDS011;2485;49.326;7.214;2023-01-29T02:05:04;3.93;;;3.03;;
4939;SDS011;2485;49.326;7.214;2023-01-29T02:07:48;4.37;;;3.37;;
4939;SDS011;2485;49.326;7.214;2023-01-29T02:10:34;4.50;;;2.97;;
4939;SDS011;2485;49.326;7.214;2023-01-29T02:13:02;3.30;;;3.00;;
4939;SDS011;2485;49.326;7.214;2023-01-29T02:15:29;3.00;;;2.70;;
4939;SDS011;2485;49.326;7.214;2023-01-29T02:17:55;3.30;;;3.00;;
4939;SDS011;2485;49.326;7.214;2023-01-29T02:20:23;3.53;;;3.03;;
4939;SDS011;2485;49.326;7.214;2023-01-29T02:22:58;3.80;;;3.03;;
4939;SDS011;2485;49.326;7.214;2023-01-29T02:25:42;3.40;;;3.10;;
4939;SDS011;2485;49.326;7.214;2023-01-29T02:28:24;3.87;;;3.30;;
4939;SDS011;2485;49.326;7.214;2023-01-29T02:30:56;4.00;;;3.43;;
4939;SDS011;2485;49.326;7.214;2023-01-29T02:33:28;3.77;;;2.57;;
4939;SDS011;2485;49.326;7.214;2023-01-29T02:35:58;4.83;;;2.70;;
4939;SDS011;2485;49.326;7.214;2023-01-29T02:38:29;7.30;;;3.10;;
4939;SDS011;2485;49.326;7.214;2023-01-29T02:41:00;7.03;;;2.77;;
4939;SDS011;2485;49.326;7.214;2023-01-29T02:43:29;4.33;;;2.80;;
4939;SDS011;2485;49.326;7.214;2023-01-29T02:45:59;3.53;;;2.70;;
4939;SDS011;2485;49.326;7.214;2023-01-29T02:48:28;3.57;;;2.73;;
4939;SDS011;2485;49.326;7.214;2023-01-29T02:50:57;5.90;;;3.23;;
4939;SDS011;2485;49.326;7.214;2023-01-29T02:53:24;3.90;;;3.07;;
4939;SDS011;2485;49.326;7.214;2023-01-29T02:55:53;3.60;;;3.13;;
4939;SDS011;2485;49.326;7.214;2023-01-29T02:58:24;5.47;;;3.70;;
4939;SDS011;2485;49.326;7.214;2023-01-29T03:00:54;6.07;;;3.57;;
4939;SDS011;2485;49.326;7.214;2023-01-29T03:03:22;6.63;;;3.77;;
4939;SDS011;2485;49.326;7.214;2023-01-29T03:05:51;5.00;;;3.40;;
4939;SDS011;2485;49.326;7.214;2023-01-29T03:08:24;5.50;;;3.90;;
4939;SDS011;2485;49.326;7.214;2023-01-29T03:11:01;4.37;;;3.43;;
4939;SDS011;2485;49.326;7.214;2023-01-29T03:13:29;5.90;;;3.77;;
4939;SDS011;2485;49.326;7.214;2023-01-29T03:16:00;5.27;;;3.50;;
4939;SDS011;2485;49.326;7.214;2023-01-29T03:18:28;9.13;;;3.67;;
4939;SDS011;2485;49.326;7.214;2023-01-29T03:20:56;4.80;;;3.50;;
4939;SDS011;2485;49.326;7.214;2023-01-29T03:23:25;4.67;;;3.47;;
4939;SDS011;2485;49.326;7.214;2023-01-29T03:26:11;7.07;;;3.37;;
4939;SDS011;2485;49.326;7.214;2023-01-29T03:28:56;6.53;;;3.47;;
4939;SDS011;2485;49.326;7.214;2023-01-29T03:31:42;5.17;;;3.43;;
4939;SDS011;2485;49.326;7.214;2023-01-29T03:34:26;6.43;;;3.87;;
4939;SDS011;2485;49.326;7.214;2023-01-29T03:37:00;5.70;;;3.90;;
4939;SDS011;2485;49.326;7.214;2023-01-29T03:39:28;4.83;;;3.53;;
4939;SDS011;2485;49.326;7.214;2023-01-29T03:41:54;4.60;;;3.30;;
4939;SDS011;2485;49.326;7.214;2023-01-29T03:44:25;5.73;;;3.23;;
4939;SDS011;2485;49.326;7.214;2023-01-29T03:46:57;6.60;;;4.50;;
4939;SDS011;2485;49.326;7.214;2023-01-29T03:49:28;3.93;;;3.00;;
4939;SDS011;2485;49.326;7.214;2023-01-29T03:51:57;5.70;;;3.20;;
4939;SDS011;2485;49.326;7.214;2023-01-29T03:54:27;4.70;;;3.00;;
4939;SDS011;2485;49.326;7.214;2023-01-29T03:56:58;4.70;;;3.70;;
4939;SDS011;2485;49.326;7.214;2023-01-29T03:59:30;4.10;;;3.30;;
4939;SDS011;2485;49.326;7.214;2023-01-29T04:02:00;4.90;;;3.73;;
4939;SDS011;2485;49.326;7.214;2023-01-29T04:04:28;4.30;;;3.20;;
4939;SDS011;2485;49.326;7.214;2023-01-29T04:06:57;5.37;;;4.20;;
4939;SDS011;2485;49.326;7.214;2023-01-29T04:09:27;3.53;;;2.83;;
4939;SDS011;2485;49.326;7.214;2023-01-29T04:11:56;4.97;;;3.07;;
4939;SDS011;2485;49.326;7.214;2023-01-29T04:14:24;5.80;;;3.80;;
4939;SDS011;2485;49.326;7.214;2023-01-29T04:16:52;5.73;;;3.73;;
4939;SDS011;2485;49.326;7.214;2023-01-29T04:19:22;5.00;;;4.00;;
4939;SDS011;2485;49.326;7.214;2023-01-29T04:21:49;4.63;;;3.70;;
4939;SDS011;2485;49.326;7.214;2023-01-29T04:24:15;6.50;;;3.70;;
4939;SDS011;2485;49.326;7.214;2023-01-29T04:26:49;6.10;;;4.10;;
4939;SDS011;2485;49.326;7.214;2023-01-29T04:29:25;8.00;;;4.47;;
4939;SDS011;2485;49.326;7.214;2023-01-29T04:31:55;9.90;;;4.10;;
4939;SDS011;2485;49.326;7.214;2023-01-29T04:34:24;6.77;;;4.77;;
4939;SDS011;2485;49.326;7.214;2023-01-29T04:36:56;7.93;;;5.10;;
4939;SDS011;2485;49.326;7.214;2023-01-29T04:39:24;6.10;;;4.83;;
4939;SDS011;2485;49.326;7.214;2023-01-29T04:41:52;9.80;;;5.63;;
4939;SDS011;2485;49.326;7.214;2023-01-29T04:44:20;8.93;;;5.33;;
4939;SDS011;2485;49.326;7.214;2023-01-29T04:46:48;10.00;;;5.37;;
4939;SDS011;2485;49.326;7.214;2023-01-29T04:49:21;6.93;;;5.27;;
4939;SDS011;2485;49.326;7.214;2023-01-29T04:51:56;9.03;;;4.40;;
4939;SDS011;2485;49.326;7.214;2023-01-29T04:54:27;6.87;;;4.73;;
4939;SDS011;2485;49.326;7.214;2023-01-29T04:56:54;7.87;;;5.27;;
4939;SDS011;2485;49.326;7.214;2023-01-29T04:59:23;5.40;;;4.40;;
4939;SDS011;2485;49.326;7.214;2023-01-29T05:01:52;5.13;;;4.50;;
4939;SDS011;2485;49.326;7.214;2023-01-29T05:04:19;6.63;;;3.93;;
4939;SDS011;2485;49.326;7.214;2023-01-29T05:06:45;6.50;;;4.33;;
4939;SDS011;2485;49.326;7.214;2023-01-29T05:09:13;4.40;;;3.30;;
4939;SDS011;2485;49.326;7.214;2023-01-29T05:11:41;6.90;;;3.60;;
4939;SDS011;2485;49.326;7.214;2023-01-29T05:14:08;4.13;;;3.63;;
4939;SDS011;2485;49.326;7.214;2023-01-29T05:16:37;6.13;;;3.87;;
4939;SDS011;2485;49.326;7.214;2023-01-29T05:19:06;3.77;;;3.30;;
4939;SDS011;2485;49.326;7.214;2023-01-29T05:21:33;6.40;;;3.50;;
4939;SDS011;2485;49.326;7.214;2023-01-29T05:24:07;5.33;;;3.33;;
4939;SDS011;2485;49.326;7.214;2023-01-29T05:26:35;5.10;;;3.53;;
4939;SDS011;2485;49.326;7.214;2023-01-29T05:29:19;5.37;;;3.37;;
4939;SDS011;2485;49.326;7.214;2023-01-29T05:31:46;4.17;;;3.40;;
4939;SDS011;2485;49.326;7.214;2023-01-29T05:34:12;6.73;;;4.20;;
4939;SDS011;2485;49.326;7.214;2023-01-29T05:36:39;6.87;;;4.40;;
4939;SDS011;2485;49.326;7.214;2023-01-29T05:39:05;7.10;;;4.13;;
4939;SDS011;2485;49.326;7.214;2023-01-29T05:41:31;7.50;;;4.00;;
4939;SDS011;2485;49.326;7.214;2023-01-29T05:43:59;8.57;;;4.57;;
4939;SDS011;2485;49.326;7.214;2023-01-29T05:46:25;5.63;;;4.33;;
4939;SDS011;2485;49.326;7.214;2023-01-29T05:48:52;12.83;;;5.70;;
4939;SDS011;2485;49.326;7.214;2023-01-29T05:51:18;8.67;;;4.53;;
4939;SDS011;2485;49.326;7.214;2023-01-29T05:53:44;7.80;;;4.90;;
4939;SDS011;2485;49.326;7.214;2023-01-29T05:56:11;8.70;;;5.50;;
4939;SDS011;2485;49.326;7.214;2023-01-29T05:58:37;6.80;;;4.57;;
4939;SDS011;2485;49.326;7.214;2023-01-29T06:01:08;8.70;;;4.77;;
4939;SDS011;2485;49.326;7.214;2023-01-29T06:03:35;5.87;;;3.90;;
4939;SDS011;2485;49.326;7.214;2023-01-29T06:06:01;7.87;;;5.20;;
4939;SDS011;2485;49.326;7.214;2023-01-29T06:08:27;7.40;;;4.50;;
4939;SDS011;2485;49.326;7.214;2023-01-29T06:10:54;8.90;;;4.93;;
4939;SDS011;2485;49.326;7.214;2023-01-29T06:13:20;7.67;;;4.70;;
4939;SDS011;2485;49.326;7.214;2023-01-29T06:15:47;9.60;;;6.13;;
4939;SDS011;2485;49.326;7.214;2023-01-29T06:18:15;5.27;;;4.30;;
4939;SDS011;2485;49.326;7.214;2023-01-29T06:20:41;6.80;;;4.30;;
4939;SDS011;2485;49.326;7.214;2023-01-29T06:23:07;8.93;;;4.60;;
4939;SDS011;2485;49.326;7.214;2023-01-29T06:25:33;8.13;;;4.23;;
4939;SDS011;2485;49.326;7.214;2023-01-29T06:28:00;7.97;;;4.50;;
4939;SDS011;2485;49.326;7.214;2023-01-29T06:30:26;7.00;;;4.30;;
4939;SDS011;2485;49.326;7.214;2023-01-29T06:32:54;6.97;;;4.60;;
4939;SDS011;2485;49.326;7.214;2023-01-29T06:35:21;10.50;;;5.20;;
4939;SDS011;2485;49.326;7.214;2023-01-29T06:37:48;8.03;;;5.47;;
4939;SDS011;2485;49.326;7.214;2023-01-29T06:40:14;10.27;;;5.97;;
4939;SDS011;2485;49.326;7.214;2023-01-29T06:42:41;7.70;;;5.77;;
4939;SDS011;2485;49.326;7.214;2023-01-29T06:45:07;9.00;;;6.37;;
4939;SDS011;2485;49.326;7.214;2023-01-29T06:47:34;10.70;;;6.27;;
4939;SDS011;2485;49.326;7.214;2023-01-29T06:50:01;11.73;;;6.20;;
4939;SDS011;2485;49.326;7.214;2023-01-29T06:52:28;11.23;;;6.00;;
4939;SDS011;2485;49.326;7.214;2023-01-29T06:54:55;9.73;;;6.10;;
4939;SDS011;2485;49.326;7.214;2023-01-29T06:57:21;10.13;;;5.73;;
4939;SDS011;2485;49.326;7.214;2023-01-29T06:59:48;9.77;;;5.60;;
4939;SDS011;2485;49.326;7.214;2023-01-29T07:02:14;12.07;;;5.60;;
4939;SDS011;2485;49.326;7.214;2023-01-29T07:04:40;10.30;;;6.10;;
4939;SDS011;2485;49.326;7.214;2023-01-29T07:07:07;10.50;;;6.10;;
4939;SDS011;2485;49.326;7.214;2023-01-29T07:09:38;11.97;;;6.60;;
4939;SDS011;2485;49.326;7.214;2023-01-29T07:12:05;15.63;;;6.80;;
4939;SDS011;2485;49.326;7.214;2023-01-29T07:14:32;9.23;;;5.70;;
4939;SDS011;2485;49.326;7.214;2023-01-29T07:16:58;12.00;;;6.80;;
4939;SDS011;2485;49.326;7.214;2023-01-29T07:19:25;9.00;;;5.90;;
4939;SDS011;2485;49.326;7.214;2023-01-29T07:21:51;12.10;;;6.60;;
4939;SDS011;2485;49.326;7.214;2023-01-29T07:24:18;8.77;;;5.80;;
4939;SDS011;2485;49.326;7.214;2023-01-29T07:26:46;11.10;;;6.03;;
4939;SDS011;2485;49.326;7.214;2023-01-29T07:29:12;14.23;;;8.73;;
4939;SDS011;2485;49.326;7.214;2023-01-29T07:31:38;13.30;;;7.03;;
4939;SDS011;2485;49.326;7.214;2023-01-29T07:34:05;9.97;;;6.00;;
4939;SDS011;2485;49.326;7.214;2023-01-29T07:36:31;10.40;;;6.77;;
4939;SDS011;2485;49.326;7.214;2023-01-29T07:38:57;15.87;;;7.67;;
4939;SDS011;2485;49.326;7.214;2023-01-29T07:41:24;15.57;;;8.67;;
4939;SDS011;2485;49.326;7.214;2023-01-29T07:43:51;8.37;;;5.57;;
4939;SDS011;2485;49.326;7.214;2023-01-29T07:46:18;10.83;;;5.37;;
4939;SDS011;2485;49.326;7.214;2023-01-29T07:48:44;20.93;;;8.70;;
4939;SDS011;2485;49.326;7.214;2023-01-29T07:51:10;13.43;;;8.90;;
4939;SDS011;2485;49.326;7.214;2023-01-29T07:53:37;13.53;;;8.10;;
4939;SDS011;2485;49.326;7.214;2023-01-29T07:56:03;15.03;;;9.00;;
4939;SDS011;2485;49.326;7.214;2023-01-29T07:58:30;19.00;;;9.67;;
4939;SDS011;2485;49.326;7.214;2023-01-29T08:00:57;17.33;;;9.73;;
4939;SDS011;2485;49.326;7.214;2023-01-29T08:03:24;18.30;;;10.40;;
4939;SDS011;2485;49.326;7.214;2023-01-29T08:05:50;24.33;;;11.50;;
4939;SDS011;2485;49.326;7.214;2023-01-29T08:08:16;22.83;;;11.50;;
4939;SDS011;2485;49.326;7.214;2023-01-29T08:10:43;20.63;;;11.27;;
4939;SDS011;2485;49.326;7.214;2023-01-29T08:13:09;40.30;;;16.43;;
4939;SDS011;2485;49.326;7.214;2023-01-29T08:15:35;46.20;;;19.13;;
4939;SDS011;2485;49.326;7.214;2023-01-29T08:18:03;51.40;;;18.00;;
4939;SDS011;2485;49.326;7.214;2023-01-29T08:20:30;41.27;;;16.73;;
4939;SDS011;2485;49.326;7.214;2023-01-29T08:22:59;41.83;;;15.57;;
4939;SDS011;2485;49.326;7.214;2023-01-29T08:25:26;36.93;;;16.57;;
4939;SDS011;2485;49.326;7.214;2023-01-29T08:27:53;30.03;;;13.53;;
4939;SDS011;2485;49.326;7.214;2023-01-29T08:30:19;28.60;;;14.07;;
4939;SDS011;2485;49.326;7.214;2023-01-29T08:32:45;28.00;;;13.93;;
4939;SDS011;2485;49.326;7.214;2023-01-29T08:35:13;26.90;;;13.50;;
4939;SDS011;2485;49.326;7.214;2023-01-29T08:37:39;29.03;;;13.80;;
4939;SDS011;2485;49.326;7.214;2023-01-29T08:40:06;25.23;;;14.17;;
4939;SDS011;2485;49.326;7.214;2023-01-29T08:42:34;29.20;;;15.50;;
4939;SDS011;2485;49.326;7.214;2023-01-29T08:45:01;27.60;;;14.50;;
4939;SDS011;2485;49.326;7.214;2023-01-29T08:47:27;23.30;;;11.80;;
4939;SDS011;2485;49.326;7.214;2023-01-29T08:49:53;15.60;;;8.50;;
4939;SDS011;2485;49.326;7.214;2023-01-29T08:52:21;13.63;;;8.67;;
4939;SDS011;2485;49.326;7.214;2023-01-29T08:54:47;16.40;;;7.80;;
4939;SDS011;2485;49.326;7.214;2023-01-29T08:57:14;15.10;;;8.47;;
4939;SDS011;2485;49.326;7.214;2023-01-29T08:59:40;12.50;;;7.30;;
4939;SDS011;2485;49.326;7.214;2023-01-29T09:02:07;14.10;;;8.47;;
4939;SDS011;2485;49.326;7.214;2023-01-29T09:04:34;12.20;;;6.93;;
4939;SDS011;2485;49.326;7.214;2023-01-29T09:07:00;9.60;;;6.97;;
4939;SDS011;2485;49.326;7.214;2023-01-29T09:09:28;11.00;;;7.57;;
4939;SDS011;2485;49.326;7.214;2023-01-29T09:11:54;8.97;;;6.70;;
4939;SDS011;2485;49.326;7.214;2023-01-29T09:14:20;11.37;;;6.23;;
4939;SDS011;2485;49.326;7.214;2023-01-29T09:16:47;9.73;;;6.20;;
4939;SDS011;2485;49.326;7.214;2023-01-29T09:19:13;11.20;;;5.77;;
4939;SDS011;2485;49.326;7.214;2023-01-29T09:21:39;11.97;;;6.10;;
4939;SDS011;2485;49.326;7.214;2023-01-29T09:24:06;9.10;;;5.83;;
4939;SDS011;2485;49.326;7.214;2023-01-29T09:26:34;8.70;;;5.20;;
4939;SDS011;2485;49.326;7.214;2023-01-29T09:29:00;6.47;;;4.73;;
4939;SDS011;2485;49.326;7.214;2023-01-29T09:31:29;6.50;;;5.43;;
4939;SDS011;2485;49.326;7.214;2023-01-29T09:33:56;6.23;;;4.10;;
4939;SDS011;2485;49.326;7.214;2023-01-29T09:36:22;6.40;;;4.37;;
4939;SDS011;2485;49.326;7.214;2023-01-29T09:38:48;5.73;;;4.07;;
4939;SDS011;2485;49.326;7.214;2023-01-29T09:41:18;6.93;;;4.90;;
4939;SDS011;2485;49.326;7.214;2023-01-29T09:43:50;6.60;;;4.30;;
4939;SDS011;2485;49.326;7.214;2023-01-29T09:46:27;6.53;;;4.43;;
4939;SDS011;2485;49.326;7.214;2023-01-29T09:48:56;7.00;;;3.73;;
4939;SDS011;2485;49.326;7.214;2023-01-29T09:51:26;7.80;;;4.80;;
4939;SDS011;2485;49.326;7.214;2023-01-29T09:53:54;5.80;;;4.40;;
4939;SDS011;2485;49.326;7.214;2023-01-29T09:56:22;9.30;;;4.70;;
4939;SDS011;2485;49.326;7.214;2023-01-29T09:58:54;5.70;;;3.97;;
4939;SDS011;2485;49.326;7.214;2023-01-29T10:01:22;5.90;;;4.10;;
4939;SDS011;2485;49.326;7.214;2023-01-29T10:06:37;7.03;;;3.80;;
4939;SDS011;2485;49.326;7.214;2023-01-29T10:09:15;6.83;;;4.87;;
4939;SDS011;2485;49.326;7.214;2023-01-29T10:11:48;6.03;;;4.53;;
4939;SDS011;2485;49.326;7.214;2023-01-29T10:14:21;6.27;;;4.20;;
4939;SDS011;2485;49.326;7.214;2023-01-29T10:16:59;6.83;;;4.70;;
4939;SDS011;2485;49.326;7.214;2023-01-29T10:19:42;8.77;;;4.17;;
4939;SDS011;2485;49.326;7.214;2023-01-29T10:22:13;7.03;;;4.20;;
4939;SDS011;2485;49.326;7.214;2023-01-29T10:24:44;7.90;;;4.10;;
4939;SDS011;2485;49.326;7.214;2023-01-29T10:27:14;11.00;;;6.27;;
4939;SDS011;2485;49.326;7.214;2023-01-29T10:29:42;12.63;;;6.67;;
4939;SDS011;2485;49.326;7.214;2023-01-29T10:32:11;6.40;;;4.70;;
4939;SDS011;2485;49.326;7.214;2023-01-29T10:34:39;7.20;;;5.00;;
4939;SDS011;2485;49.326;7.214;2023-01-29T10:37:11;6.37;;;4.03;;
4939;SDS011;2485;49.326;7.214;2023-01-29T10:39:38;7.57;;;4.83;;
4939;SDS011;2485;49.326;7.214;2023-01-29T10:42:08;8.23;;;4.27;;
4939;SDS011;2485;49.326;7.214;2023-01-29T10:44:48;13.93;;;6.20;;
4939;SDS011;2485;49.326;7.214;2023-01-29T10:47:18;6.83;;;4.63;;
4939;SDS011;2485;49.326;7.214;2023-01-29T10:50:00;11.10;;;6.20;;
4939;SDS011;2485;49.326;7.214;2023-01-29T10:52:33;6.90;;;4.50;;
4939;SDS011;2485;49.326;7.214;2023-01-29T10:55:03;16.70;;;7.03;;
4939;SDS011;2485;49.326;7.214;2023-01-29T10:57:39;22.53;;;9.57;;
4939;SDS011;2485;49.326;7.214;2023-01-29T11:00:09;12.77;;;7.70;;
4939;SDS011;2485;49.326;7.214;2023-01-29T11:02:37;7.80;;;4.93;;
4939;SDS011;2485;49.326;7.214;2023-01-29T11:05:08;10.13;;;5.87;;
4939;SDS011;2485;49.326;7.214;2023-01-29T11:07:40;7.60;;;5.03;;
4939;SDS011;2485;49.326;7.214;2023-01-29T11:10:07;8.03;;;5.70;;
4939;SDS011;2485;49.326;7.214;2023-01-29T11:12:35;15.17;;;7.87;;
4939;SDS011;2485;49.326;7.214;2023-01-29T11:15:04;10.30;;;6.17;;
4939;SDS011;2485;49.326;7.214;2023-01-29T11:17:33;12.30;;;5.40;;
4939;SDS011;2485;49.326;7.214;2023-01-29T11:19:59;10.60;;;5.67;;
4939;SDS011;2485;49.326;7.214;2023-01-29T11:22:26;7.90;;;5.07;;
4939;SDS011;2485;49.326;7.214;2023-01-29T11:25:09;7.10;;;4.80;;
4939;SDS011;2485;49.326;7.214;2023-01-29T11:27:39;7.80;;;4.87;;
4939;SDS011;2485;49.326;7.214;2023-01-29T11:30:10;5.47;;;4.20;;
4939;SDS011;2485;49.326;7.214;2023-01-29T11:32:41;8.90;;;5.30;;
4939;SDS011;2485;49.326;7.214;2023-01-29T11:35:18;11.17;;;4.97;;
4939;SDS011;2485;49.326;7.214;2023-01-29T11:37:45;7.50;;;4.87;;
4939;SDS011;2485;49.326;7.214;2023-01-29T11:42:56;7.37;;;5.03;;
4939;SDS011;2485;49.326;7.214;2023-01-29T11:45:37;7.77;;;5.50;;
4939;SDS011;2485;49.326;7.214;2023-01-29T11:48:10;5.40;;;4.57;;
4939;SDS011;2485;49.326;7.214;2023-01-29T11:50:38;8.33;;;5.97;;
4939;SDS011;2485;49.326;7.214;2023-01-29T11:53:05;6.60;;;4.83;;
4939;SDS011;2485;49.326;7.214;2023-01-29T11:55:32;5.17;;;4.37;;
4939;SDS011;2485;49.326;7.214;2023-01-29T11:58:00;9.20;;;4.70;;
4939;SDS011;2485;49.326;7.214;2023-01-29T12:00:28;10.93;;;7.17;;
4939;SDS011;2485;49.326;7.214;2023-01-29T12:02:56;10.97;;;5.83;;
4939;SDS011;2485;49.326;7.214;2023-01-29T12:05:28;7.80;;;4.90;;
4939;SDS011;2485;49.326;7.214;2023-01-29T12:07:55;11.00;;;6.17;;
4939;SDS011;2485;49.326;7.214;2023-01-29T12:10:30;11.17;;;6.00;;
4939;SDS011;2485;49.326;7.214;2023-01-29T12:13:02;7.20;;;4.73;;
4939;SDS011;2485;49.326;7.214;2023-01-29T12:15:29;8.27;;;5.83;;
4939;SDS011;2485;49.326;7.214;2023-01-29T12:17:57;7.40;;;4.60;;
4939;SDS011;2485;49.326;7.214;2023-01-29T12:20:26;6.33;;;4.50;;
4939;SDS011;2485;49.326;7.214;2023-01-29T12:22:58;7.50;;;4.60;;
4939;SDS011;2485;49.326;7.214;2023-01-29T12:25:29;10.87;;;5.50;;
4939;SDS011;2485;49.326;7.214;2023-01-29T12:27:59;7.23;;;4.70;;
4939;SDS011;2485;49.326;7.214;2023-01-29T12:30:30;7.03;;;4.97;;
4939;SDS011;2485;49.326;7.214;2023-01-29T12:33:00;6.43;;;4.77;;
4939;SDS011;2485;49.326;7.214;2023-01-29T12:35:29;9.63;;;6.00;;
4939;SDS011;2485;49.326;7.214;2023-01-29T12:37:59;7.57;;;4.87;;
4939;SDS011;2485;49.326;7.214;2023-01-29T12:40:28;9.33;;;4.93;;
4939;SDS011;2485;49.326;7.214;2023-01-29T12:42:55;6.67;;;5.00;;
4939;SDS011;2485;49.326;7.214;2023-01-29T12:45:23;8.40;;;4.97;;
4939;SDS011;2485;49.326;7.214;2023-01-29T12:47:50;7.63;;;4.80;;
4939;SDS011;2485;49.326;7.214;2023-01-29T12:50:18;7.20;;;5.10;;
4939;SDS011;2485;49.326;7.214;2023-01-29T12:52:46;11.13;;;6.17;;
4939;SDS011;2485;49.326;7.214;2023-01-29T12:55:15;5.63;;;4.90;;
4939;SDS011;2485;49.326;7.214;2023-01-29T12:57:44;15.57;;;6.17;;
4939;SDS011;2485;49.326;7.214;2023-01-29T13:00:12;8.50;;;5.00;;
4939;SDS011;2485;49.326;7.214;2023-01-29T13:02:44;9.37;;;5.63;;
4939;SDS011;2485;49.326;7.214;2023-01-29T13:05:15;8.90;;;5.40;;
4939;SDS011;2485;49.326;7.214;2023-01-29T13:07:44;11.43;;;5.93;;
4939;SDS011;2485;49.326;7.214;2023-01-29T13:10:16;11.53;;;6.53;;
4939;SDS011;2485;49.326;7.214;2023-01-29T13:12:46;7.50;;;5.50;;
4939;SDS011;2485;49.326;7.214;2023-01-29T13:15:16;8.13;;;4.87;;
4939;SDS011;2485;49.326;7.214;2023-01-29T13:17:46;11.57;;;5.43;;
4939;SDS011;2485;49.326;7.214;2023-01-29T13:20:15;11.60;;;5.50;;
4939;SDS011;2485;49.326;7.214;2023-01-29T13:22:42;9.07;;;5.50;;
4939;SDS011;2485;49.326;7.214;2023-01-29T13:25:11;9.63;;;4.73;;
4939;SDS011;2485;49.326;7.214;2023-01-29T13:27:41;10.80;;;5.60;;
4939;SDS011;2485;49.326;7.214;2023-01-29T13:30:21;6.23;;;4.30;;
4939;SDS011;2485;49.326;7.214;2023-01-29T13:32:49;6.53;;;4.03;;
4939;SDS011;2485;49.326;7.214;2023-01-29T13:35:16;7.33;;;4.70;;
4939;SDS011;2485;49.326;7.214;2023-01-29T13:37:45;8.93;;;5.57;;
4939;SDS011;2485;49.326;7.214;2023-01-29T13:40:18;9.43;;;5.40;;
4939;SDS011;2485;49.326;7.214;2023-01-29T13:42:46;9.20;;;4.93;;
4939;SDS011;2485;49.326;7.214;2023-01-29T13:45:16;6.90;;;5.17;;
4939;SDS011;2485;49.326;7.214;2023-01-29T13:47:44;6.10;;;4.73;;
4939;SDS011;2485;49.326;7.214;2023-01-29T13:50:16;15.10;;;5.03;;
4939;SDS011;2485;49.326;7.214;2023-01-29T13:52:44;9.83;;;5.87;;
4939;SDS011;2485;49.326;7.214;2023-01-29T13:55:19;7.47;;;5.30;;
4939;SDS011;2485;49.326;7.214;2023-01-29T13:57:51;6.07;;;3.97;;
4939;SDS011;2485;49.326;7.214;2023-01-29T14:05:56;10.20;;;5.73;;
4939;SDS011;2485;49.326;7.214;2023-01-29T14:08:38;8.67;;;5.70;;
4939;SDS011;2485;49.326;7.214;2023-01-29T14:13:52;9.80;;;5.93;;
4939;SDS011;2485;49.326;7.214;2023-01-29T14:16:25;10.30;;;5.73;;
4939;SDS011;2485;49.326;7.214;2023-01-29T14:18:54;8.80;;;6.10;;
4939;SDS011;2485;49.326;7.214;2023-01-29T14:21:22;6.63;;;5.30;;
4939;SDS011;2485;49.326;7.214;2023-01-29T14:23:53;9.90;;;5.80;;
4939;SDS011;2485;49.326;7.214;2023-01-29T14:26:25;10.43;;;5.60;;
4939;SDS011;2485;49.326;7.214;2023-01-29T14:28:58;10.00;;;5.87;;
4939;SDS011;2485;49.326;7.214;2023-01-29T14:31:35;9.40;;;6.10;;
4939;SDS011;2485;49.326;7.214;2023-01-29T14:34:03;8.60;;;6.20;;
4939;SDS011;2485;49.326;7.214;2023-01-29T14:36:37;9.37;;;6.07;;
4939;SDS011;2485;49.326;7.214;2023-01-29T14:39:03;10.47;;;6.20;;
4939;SDS011;2485;49.326;7.214;2023-01-29T14:41:30;9.07;;;5.90;;
4939;SDS011;2485;49.326;7.214;2023-01-29T14:46:44;14.23;;;5.47;;
4939;SDS011;2485;49.326;7.214;2023-01-29T14:49:10;8.90;;;5.97;;
4939;SDS011;2485;49.326;7.214;2023-01-29T14:51:37;11.60;;;6.17;;
4939;SDS011;2485;49.326;7.214;2023-01-29T14:54:11;8.40;;;5.73;;
4939;SDS011;2485;49.326;7.214;2023-01-29T14:56:39;9.60;;;6.30;;
4939;SDS011;2485;49.326;7.214;2023-01-29T14:59:11;8.40;;;6.13;;
4939;SDS011;2485;49.326;7.214;2023-01-29T15:01:38;8.93;;;6.50;;
4939;SDS011;2485;49.326;7.214;2023-01-29T15:04:11;7.67;;;5.87;;
4939;SDS011;2485;49.326;7.214;2023-01-29T15:06:40;11.07;;;6.07;;
4939;SDS011;2485;49.326;7.214;2023-01-29T15:09:10;10.87;;;6.80;;
4939;SDS011;2485;49.326;7.214;2023-01-29T15:11:39;13.10;;;6.90;;
4939;SDS011;2485;49.326;7.214;2023-01-29T15:14:13;11.80;;;7.73;;
4939;SDS011;2485;49.326;7.214;2023-01-29T15:16:45;11.47;;;7.00;;
4939;SDS011;2485;49.326;7.214;2023-01-29T15:19:15;11.10;;;7.60;;
4939;SDS011;2485;49.326;7.214;2023-01-29T15:24:28;11.97;;;7.20;;
4939;SDS011;2485;49.326;7.214;2023-01-29T15:26:54;13.23;;;7.73;;
4939;SDS011;2485;49.326;7.214;2023-01-29T15:29:22;13.27;;;7.13;;
4939;SDS011;2485;49.326;7.214;2023-01-29T15:31:49;16.63;;;7.17;;
4939;SDS011;2485;49.326;7.214;2023-01-29T15:34:17;10.13;;;6.40;;
4939;SDS011;2485;49.326;7.214;2023-01-29T15:36:43;14.70;;;8.07;;
4939;SDS011;2485;49.326;7.214;2023-01-29T15:39:13;18.70;;;9.07;;
4939;SDS011;2485;49.326;7.214;2023-01-29T15:41:39;15.03;;;8.60;;